Time,TemperatureF,DewpointF,PressureIn,WindDirection,WindDirectionDegrees,WindSpeedMPH,WindSpeedGustMPH,Humidity,HourlyPrecipIn,Conditions,Clouds,dailyrainin,SoftwareType,DateUTC
2013-02-20 00:00:00,61.9,58.0,30.07,North,0,0.1,2.7,87,0.00,OVC,,0.00,WeatherDisplay:10.37,2013-02-20 05:00:00,
2013-02-20 00:05:00,61.9,58.0,30.07,North,0,0.3,2.3,87,0.00,OVC,,0.00,WeatherDisplay:10.37,2013-02-20 05:05:00,
2013-02-20 00:10:00,61.7,57.5,30.07,NW,315,0.0,2.3,86,0.00,BKN,,0.00,WeatherDisplay:10.37,2013-02-20 05:10:00,
2013-02-20 00:15:00,61.3,57.1,30.07,North,0,0.0,0.0,86,0.00,BKN,,0.00,WeatherDisplay:10.37,2013-02-20 05:15:00,
2013-02-20 00:20:00,61.2,56.9,30.07,North,0,0.0,0.0,86,0.00,BKN,,0.00,WeatherDisplay:10.37,2013-02-20 05:20:00,
2013-02-20 00:25:00,61.0,56.8,30.08,North,0,0.0,1.1,86,0.00,BKN,,0.00,WeatherDisplay:10.37,2013-02-20 05:25:00,
2013-02-20 00:30:00,60.6,56.7,30.07,NW,315,0.0,0.0,87,0.00,BKN,,0.00,WeatherDisplay:10.37,2013-02-20 05:30:00,
2013-02-20 00:35:00,60.4,56.6,30.07,NW,315,0.0,0.0,87,0.00,BKN,,0.00,WeatherDisplay:10.37,2013-02-20 05:35:00,
2013-02-20 00:40:00,60.4,56.6,30.07,NW,315,0.0,0.0,87,0.00,BKN,,0.00,WeatherDisplay:10.37,2013-02-20 05:40:00,
2013-02-20 00:45:00,60.3,56.7,30.07,NW,315,0.0,0.0,88,0.00,BKN,,0.00,WeatherDisplay:10.37,2013-02-20 05:45:00,
2013-02-20 00:50:00,60.1,56.5,30.07,North,0,0.0,0.0,88,0.00,BKN,,0.00,WeatherDisplay:10.37,2013-02-20 05:50:00,
2013-02-20 00:55:00,60.1,56.5,30.07,North,0,0.0,0.0,88,0.00,BKN,,0.00,WeatherDisplay:10.37,2013-02-20 05:55:00,
2013-02-20 01:00:00,60.1,56.5,30.07,North,0,0.0,0.0,88,0.00,BKN,,0.00,WeatherDisplay:10.37,2013-02-20 06:00:00,
2013-02-20 01:05:00,59.9,56.3,30.07,North,0,0.0,0.0,88,0.00,BKN,,0.00,WeatherDisplay:10.37,2013-02-20 06:05:00,
2013-02-20 01:10:00,59.5,56.0,30.07,North,0,0.0,0.0,88,0.00,BKN,,0.00,WeatherDisplay:10.37,2013-02-20 06:10:00,
2013-02-20 01:15:00,59.2,55.9,30.07,North,0,0.0,0.0,89,0.00,BKN,,0.00,WeatherDisplay:10.37,2013-02-20 06:15:00,
2013-02-20 01:20:00,58.8,55.6,30.07,North,0,0.0,0.0,89,0.00,BKN,,0.00,WeatherDisplay:10.37,2013-02-20 06:20:00,
2013-02-20 01:25:00,58.6,55.4,30.07,North,0,0.0,0.0,89,0.00,BKN,,0.00,WeatherDisplay:10.37,2013-02-20 06:25:00,
2013-02-20 01:30:00,57.9,54.7,30.07,North,0,0.0,0.0,89,0.00,BKN,,0.00,WeatherDisplay:10.37,2013-02-20 06:30:00,
2013-02-20 01:35:00,57.7,55.1,30.07,North,0,0.0,0.0,91,0.00,BKN,,0.00,WeatherDisplay:10.37,2013-02-20 06:35:00,
2013-02-20 01:40:00,57.6,55.0,30.07,North,0,0.0,0.0,91,0.00,BKN,,0.00,WeatherDisplay:10.37,2013-02-20 06:40:00,
2013-02-20 01:45:00,57.4,54.8,30.07,North,0,0.0,0.0,91,0.00,BKN,,0.00,WeatherDisplay:10.37,2013-02-20 06:45:00,
2013-02-20 01:50:00,56.8,54.2,30.07,North,0,0.0,0.0,91,0.00,BKN,,0.00,WeatherDisplay:10.37,2013-02-20 06:50:00,
2013-02-20 01:55:00,56.8,54.5,30.07,North,0,0.0,0.0,92,0.00,BKN,,0.00,WeatherDisplay:10.37,2013-02-20 06:55:00,
2013-02-20 02:00:00,56.5,54.2,30.07,North,0,0.0,0.0,92,0.00,BKN,,0.00,WeatherDisplay:10.37,2013-02-20 07:00:00,
2013-02-20 02:05:00,56.3,54.0,30.07,North,0,0.0,0.0,92,0.00,BKN,,0.00,WeatherDisplay:10.37,2013-02-20 07:05:00,
2013-02-20 02:10:00,56.1,53.8,30.07,North,0,0.0,0.0,92,0.00,BKN,,0.00,WeatherDisplay:10.37,2013-02-20 07:10:00,
2013-02-20 02:15:00,56.1,53.8,30.07,North,0,0.0,0.0,92,0.00,BKN,,0.00,WeatherDisplay:10.37,2013-02-20 07:15:00,
2013-02-20 02:20:00,55.9,53.9,30.07,North,0,0.0,0.0,93,0.00,BKN,,0.00,WeatherDisplay:10.37,2013-02-20 07:20:00,
2013-02-20 02:25:00,55.9,53.9,30.07,North,0,0.0,0.0,93,0.00,BKN,,0.00,WeatherDisplay:10.37,2013-02-20 07:25:00,
2013-02-20 02:30:00,55.9,53.9,30.07,North,0,0.0,0.0,93,0.00,BKN,,0.00,WeatherDisplay:10.37,2013-02-20 07:30:00,
2013-02-20 02:35:00,55.9,53.9,30.07,North,0,0.0,0.0,93,0.00,BKN,,0.00,WeatherDisplay:10.37,2013-02-20 07:35:00,
2013-02-20 02:40:00,55.9,53.9,30.07,North,0,0.0,0.0,93,0.00,BKN,,0.00,WeatherDisplay:10.37,2013-02-20 07:40:00,
2013-02-20 02:45:00,55.9,53.9,30.07,North,0,0.0,0.0,93,0.00,BKN,,0.00,WeatherDisplay:10.37,2013-02-20 07:45:00,
2013-02-20 02:50:00,55.8,54.1,30.07,North,0,0.0,0.0,94,0.00,BKN,,0.00,WeatherDisplay:10.37,2013-02-20 07:50:00,
2013-02-20 02:55:00,55.8,54.1,30.07,North,0,0.0,0.0,94,0.00,BKN,,0.00,WeatherDisplay:10.37,2013-02-20 07:55:00,
2013-02-20 03:00:00,55.8,54.1,30.07,North,0,0.0,0.0,94,0.00,BKN,,0.00,WeatherDisplay:10.37,2013-02-20 08:00:00,
2013-02-20 03:05:00,55.6,53.9,30.07,North,0,0.0,0.0,94,0.00,BKN,,0.00,WeatherDisplay:10.37,2013-02-20 08:05:00,
2013-02-20 03:10:00,55.6,53.9,30.07,North,0,0.0,0.0,94,0.00,BKN,,0.00,WeatherDisplay:10.37,2013-02-20 08:10:00,
2013-02-20 03:15:00,55.2,53.5,30.07,North,0,0.0,0.0,94,0.00,BKN,,0.00,WeatherDisplay:10.37,2013-02-20 08:15:00,
2013-02-20 03:20:00,55.2,53.8,30.07,NW,315,0.5,2.3,95,0.00,BKN,,0.00,WeatherDisplay:10.37,2013-02-20 08:20:00,
2013-02-20 03:25:00,55.2,53.8,30.07,North,0,0.2,2.7,95,0.00,SCT,,0.00,WeatherDisplay:10.37,2013-02-20 08:25:00,
2013-02-20 03:30:00,55.2,52.9,30.07,NE,45,0.5,2.3,92,0.00,SCT,,0.00,WeatherDisplay:10.37,2013-02-20 08:30:00,
2013-02-20 03:35:00,55.2,52.3,30.07,North,0,0.8,2.3,90,0.00,SCT,,0.00,WeatherDisplay:10.37,2013-02-20 08:35:00,
2013-02-20 03:40:00,55.2,52.3,30.07,North,0,0.0,0.0,90,0.00,SCT,,0.00,WeatherDisplay:10.37,2013-02-20 08:40:00,
2013-02-20 03:45:00,55.0,51.9,30.07,North,0,0.0,0.0,89,0.00,SCT,,0.00,WeatherDisplay:10.37,2013-02-20 08:45:00,
2013-02-20 03:50:00,55.0,51.2,30.07,North,0,1.3,2.3,87,0.00,SCT,,0.00,WeatherDisplay:10.37,2013-02-20 08:50:00,
2013-02-20 03:55:00,54.7,49.9,30.07,North,0,0.6,2.3,84,0.00,SCT,,0.00,WeatherDisplay:10.37,2013-02-20 08:55:00,
2013-02-20 04:00:00,54.7,49.0,30.07,North,0,1.4,5.8,81,0.00,SCT,,0.00,WeatherDisplay:10.37,2013-02-20 09:00:00,
2013-02-20 04:05:00,54.7,48.3,30.07,North,0,1.9,5.8,79,0.00,SCT,,0.00,WeatherDisplay:10.37,2013-02-20 09:05:00,
2013-02-20 04:10:00,54.7,48.0,30.07,North,0,0.8,5.3,78,0.00,SCT,,0.00,WeatherDisplay:10.37,2013-02-20 09:10:00,
2013-02-20 04:15:00,54.3,47.3,30.07,NW,315,0.5,4.1,77,0.00,SCT,,0.00,WeatherDisplay:10.37,2013-02-20 09:15:00,
2013-02-20 04:20:00,54.1,46.7,30.07,North,0,1.6,4.6,76,0.00,SCT,,0.00,WeatherDisplay:10.37,2013-02-20 09:20:00,
2013-02-20 04:25:00,54.0,46.6,30.07,NE,45,0.6,2.7,76,0.00,SCT,,0.00,WeatherDisplay:10.37,2013-02-20 09:25:00,
2013-02-20 04:30:00,53.8,46.4,30.07,NE,45,0.9,4.6,76,0.00,SCT,,0.00,WeatherDisplay:10.37,2013-02-20 09:30:00,
2013-02-20 04:35:00,53.4,46.0,30.07,North,0,0.6,2.7,76,0.00,SCT,,0.00,WeatherDisplay:10.37,2013-02-20 09:35:00,
2013-02-20 04:40:00,53.4,46.0,30.08,North,0,0.3,2.3,76,0.00,SCT,,0.00,WeatherDisplay:10.37,2013-02-20 09:40:00,
2013-02-20 04:45:00,53.2,46.2,30.08,North,0,0.2,4.6,77,0.00,SCT,,0.00,WeatherDisplay:10.37,2013-02-20 09:45:00,
2013-02-20 04:50:00,53.1,45.3,30.08,North,0,0.5,4.6,75,0.00,SCT,,0.00,WeatherDisplay:10.37,2013-02-20 09:50:00,
2013-02-20 04:55:00,52.9,45.5,30.09,NW,315,0.5,5.8,76,0.00,SCT,,0.00,WeatherDisplay:10.37,2013-02-20 09:55:00,
2013-02-20 05:00:00,52.9,44.5,30.09,North,0,1.2,2.7,73,0.00,SCT,,0.00,WeatherDisplay:10.37,2013-02-20 10:00:00,
2013-02-20 05:05:00,52.7,44.3,30.09,North,0,0.6,4.6,73,0.00,FEW,,0.00,WeatherDisplay:10.37,2013-02-20 10:05:00,
2013-02-20 05:10:00,52.5,44.5,30.09,North,0,0.7,2.3,74,0.00,FEW,,0.00,WeatherDisplay:10.37,2013-02-20 10:10:00,
2013-02-20 05:15:00,52.3,44.3,30.09,North,0,0.0,0.0,74,0.00,FEW,,0.00,WeatherDisplay:10.37,2013-02-20 10:15:00,
2013-02-20 05:20:00,51.8,44.8,30.09,North,0,0.4,2.3,77,0.00,FEW,,0.00,WeatherDisplay:10.37,2013-02-20 10:20:00,
2013-02-20 05:25:00,51.6,45.3,30.09,North,0,1.8,5.8,79,0.00,FEW,,0.00,WeatherDisplay:10.37,2013-02-20 10:25:00,
2013-02-20 05:30:00,51.6,45.0,30.09,North,0,1.6,5.8,78,0.00,FEW,,0.00,WeatherDisplay:10.37,2013-02-20 10:30:00,
2013-02-20 05:35:00,51.4,44.1,30.09,North,0,0.1,3.5,76,0.00,FEW,,0.00,WeatherDisplay:10.37,2013-02-20 10:35:00,
2013-02-20 05:40:00,51.1,42.4,30.10,North,0,0.1,2.3,72,0.00,FEW,,0.00,WeatherDisplay:10.37,2013-02-20 10:40:00,
2013-02-20 05:45:00,51.1,41.3,30.10,North,0,0.4,2.3,69,0.00,FEW,,0.00,WeatherDisplay:10.37,2013-02-20 10:45:00,
2013-02-20 05:50:00,50.9,40.3,30.10,North,0,1.9,5.8,67,0.00,FEW,,0.00,WeatherDisplay:10.37,2013-02-20 10:50:00,
2013-02-20 05:55:00,50.7,39.4,30.10,North,0,0.9,2.7,65,0.00,FEW,,0.00,WeatherDisplay:10.37,2013-02-20 10:55:00,
2013-02-20 06:00:00,50.5,38.4,30.10,North,0,0.7,8.1,63,0.00,FEW,,0.00,WeatherDisplay:10.37,2013-02-20 11:00:00,
2013-02-20 06:05:00,50.4,38.2,30.11,North,0,0.0,1.3,63,0.00,FEW,,0.00,WeatherDisplay:10.37,2013-02-20 11:05:00,
2013-02-20 06:10:00,49.8,37.3,30.11,North,0,0.0,0.0,62,0.00,FEW,,0.00,WeatherDisplay:10.37,2013-02-20 11:10:00,
2013-02-20 06:15:00,49.6,37.6,30.11,North,0,0.6,2.3,63,0.00,FEW,,0.00,WeatherDisplay:10.37,2013-02-20 11:15:00,
2013-02-20 06:20:00,49.6,37.1,30.12,North,0,0.0,1.1,62,0.00,FEW,,0.00,WeatherDisplay:10.37,2013-02-20 11:20:00,
2013-02-20 06:25:00,49.6,36.7,30.12,North,0,1.0,4.1,61,0.00,FEW,,0.00,WeatherDisplay:10.37,2013-02-20 11:25:00,
2013-02-20 06:30:00,49.3,36.8,30.12,NW,315,0.0,1.1,62,0.00,FEW,,0.00,WeatherDisplay:10.37,2013-02-20 11:30:00,
2013-02-20 06:35:00,48.9,37.3,30.12,NW,315,0.0,0.0,64,0.00,FEW,,0.00,WeatherDisplay:10.37,2013-02-20 11:35:00,
2013-02-20 06:40:00,48.6,37.3,30.12,North,0,0.0,0.0,65,0.00,FEW,,0.00,WeatherDisplay:10.37,2013-02-20 11:40:00,
2013-02-20 06:45:00,48.4,37.2,30.13,North,0,0.4,2.3,65,0.00,FEW,,0.00,WeatherDisplay:10.37,2013-02-20 11:45:00,
2013-02-20 06:50:00,48.0,37.2,30.13,North,0,0.0,2.3,66,0.00,FEW,,0.00,WeatherDisplay:10.37,2013-02-20 11:50:00,
2013-02-20 06:55:00,47.8,37.0,30.13,North,0,0.1,2.3,66,0.00,FEW,,0.00,WeatherDisplay:10.37,2013-02-20 11:55:00,
2013-02-20 07:00:00,47.8,37.0,30.13,North,0,0.0,3.5,66,0.00,FEW,,0.00,WeatherDisplay:10.37,2013-02-20 12:00:00,
2013-02-20 07:05:00,47.5,37.1,30.13,North,0,0.0,0.0,67,0.00,FEW,,0.00,WeatherDisplay:10.37,2013-02-20 12:05:00,
2013-02-20 07:10:00,47.5,36.3,30.13,North,0,0.7,2.3,65,0.00,FEW,,0.00,WeatherDisplay:10.37,2013-02-20 12:10:00,
2013-02-20 07:15:00,47.8,37.4,30.13,NW,315,0.3,1.1,67,0.00,FEW,,0.00,WeatherDisplay:10.37,2013-02-20 12:15:00,
2013-02-20 07:20:00,47.8,36.6,30.13,North,0,0.1,0.0,65,0.00,FEW,,0.00,WeatherDisplay:10.37,2013-02-20 12:20:00,
2013-02-20 07:25:00,47.5,36.7,30.13,North,0,0.2,1.1,66,0.00,FEW,,0.00,WeatherDisplay:10.37,2013-02-20 12:25:00,
2013-02-20 07:30:00,47.7,37.2,30.13,NW,315,0.0,0.0,67,0.00,FEW,,0.00,WeatherDisplay:10.37,2013-02-20 12:30:00,
2013-02-20 07:35:00,47.8,37.0,30.13,North,0,0.8,2.3,66,0.00,FEW,,0.00,WeatherDisplay:10.37,2013-02-20 12:35:00,
2013-02-20 07:40:00,47.8,36.2,30.13,North,0,0.2,2.3,64,0.00,FEW,,0.00,WeatherDisplay:10.37,2013-02-20 12:40:00,
2013-02-20 07:45:00,47.8,37.0,30.13,North,0,0.0,0.0,66,0.00,FEW,,0.00,WeatherDisplay:10.37,2013-02-20 12:45:00,
2013-02-20 07:50:00,48.0,36.4,30.14,North,0,0.5,2.3,64,0.00,FEW,,0.00,WeatherDisplay:10.37,2013-02-20 12:50:00,
2013-02-20 07:55:00,48.4,37.2,30.14,North,0,0.4,2.3,65,0.00,FEW,,0.00,WeatherDisplay:10.37,2013-02-20 12:55:00,
2013-02-20 08:00:00,48.7,37.1,30.14,North,0,2.2,5.4,64,0.00,FEW,,0.00,WeatherDisplay:10.37,2013-02-20 13:00:00,
2013-02-20 08:05:00,48.7,37.1,30.14,North,0,0.5,2.3,64,0.00,BKN,,0.00,WeatherDisplay:10.37,2013-02-20 13:05:00,
2013-02-20 08:10:00,48.9,37.3,30.14,North,0,2.1,3.5,64,0.00,BKN,,0.00,WeatherDisplay:10.37,2013-02-20 13:10:00,
2013-02-20 08:15:00,49.3,37.2,30.15,NW,315,0.8,4.0,63,0.00,BKN,,0.00,WeatherDisplay:10.37,2013-02-20 13:15:00,
2013-02-20 08:20:00,49.6,37.6,30.15,North,0,1.4,4.6,63,0.00,BKN,,0.00,WeatherDisplay:10.37,2013-02-20 13:20:00,
2013-02-20 08:25:00,49.8,36.9,30.14,North,0,1.3,2.7,61,0.00,BKN,,0.00,WeatherDisplay:10.37,2013-02-20 13:25:00,
2013-02-20 08:30:00,50.2,37.2,30.15,NE,45,0.0,1.1,61,0.00,BKN,,0.00,WeatherDisplay:10.37,2013-02-20 13:30:00,
2013-02-20 08:34:00,50.5,36.3,30.15,NE,45,2.8,4.6,58,0.00,BKN,,0.00,WeatherDisplay:10.37,2013-02-20 13:34:00,
2013-02-20 08:39:00,50.5,35.0,30.15,East,90,2.5,4.6,55,0.00,BKN,,0.00,WeatherDisplay:10.37,2013-02-20 13:39:00,
2013-02-20 08:44:00,50.7,35.1,30.15,NE,45,1.8,4.6,55,0.00,BKN,,0.00,WeatherDisplay:10.37,2013-02-20 13:44:00,
2013-02-20 08:49:00,50.9,34.8,30.14,NE,45,2.0,5.8,54,0.00,BKN,,0.00,WeatherDisplay:10.37,2013-02-20 13:49:00,
2013-02-20 08:54:00,51.3,35.2,30.15,NE,45,0.0,2.3,54,0.00,BKN,,0.00,WeatherDisplay:10.37,2013-02-20 13:54:00,
2013-02-20 08:59:00,51.4,35.8,30.14,North,0,2.1,5.8,55,0.00,BKN,,0.00,WeatherDisplay:10.37,2013-02-20 13:59:00,
2013-02-20 09:04:00,51.3,35.2,30.15,North,0,0.8,3.5,54,0.00,BKN,,0.00,WeatherDisplay:10.37,2013-02-20 14:04:00,
2013-02-20 09:09:00,51.4,35.3,30.15,North,0,1.1,8.1,54,0.00,BKN,,0.00,WeatherDisplay:10.37,2013-02-20 14:09:00,
2013-02-20 09:14:00,51.4,34.4,30.15,NE,45,1.3,5.8,52,0.00,BKN,,0.00,WeatherDisplay:10.37,2013-02-20 14:14:00,
2013-02-20 09:19:00,51.6,35.0,30.15,North,0,1.6,5.8,53,0.00,BKN,,0.00,WeatherDisplay:10.37,2013-02-20 14:19:00,
2013-02-20 09:24:00,52.0,34.9,30.15,North,0,0.8,4.6,52,0.00,BKN,,0.00,WeatherDisplay:10.37,2013-02-20 14:24:00,
2013-02-20 09:29:00,52.2,34.6,30.15,NE,45,2.4,5.8,51,0.00,BKN,,0.00,WeatherDisplay:10.37,2013-02-20 14:29:00,
2013-02-20 09:34:00,52.5,35.4,30.15,NE,45,1.1,4.6,52,0.00,BKN,,0.00,WeatherDisplay:10.37,2013-02-20 14:34:00,
2013-02-20 09:39:00,53.1,35.9,30.15,NE,45,1.5,3.5,52,0.00,BKN,,0.00,WeatherDisplay:10.37,2013-02-20 14:39:00,
2013-02-20 09:44:00,53.4,34.7,30.15,North,0,2.3,5.8,49,0.00,BKN,,0.00,WeatherDisplay:10.37,2013-02-20 14:44:00,
2013-02-20 09:49:00,54.1,34.3,30.15,North,0,1.0,3.5,47,0.00,BKN,,0.00,WeatherDisplay:10.37,2013-02-20 14:49:00,
2013-02-20 09:54:00,54.7,34.3,30.15,NE,45,0.9,4.6,46,0.00,BKN,,0.00,WeatherDisplay:10.37,2013-02-20 14:54:00,
2013-02-20 09:59:00,54.9,32.2,30.15,North,0,2.2,5.3,42,0.00,BKN,,0.00,WeatherDisplay:10.37,2013-02-20 14:59:00,
2013-02-20 10:04:00,55.6,35.1,30.15,NE,45,2.2,5.8,46,0.00,BKN,,0.00,WeatherDisplay:10.37,2013-02-20 15:04:00,
2013-02-20 10:09:00,55.9,35.4,30.15,NE,45,2.0,3.5,46,0.00,BKN,,0.00,WeatherDisplay:10.37,2013-02-20 15:09:00,
2013-02-20 10:14:00,56.1,34.5,30.15,East,90,2.0,4.6,44,0.00,BKN,,0.00,WeatherDisplay:10.37,2013-02-20 15:14:00,
2013-02-20 10:19:00,57.2,36.6,30.15,East,90,3.1,5.8,46,0.00,BKN,,0.00,WeatherDisplay:10.37,2013-02-20 15:19:00,
2013-02-20 10:24:00,58.1,35.7,30.15,East,90,1.9,5.8,43,0.00,BKN,,0.00,WeatherDisplay:10.37,2013-02-20 15:24:00,
2013-02-20 10:29:00,56.8,34.6,30.15,North,0,2.0,5.8,43,0.00,BKN,,0.00,WeatherDisplay:10.37,2013-02-20 15:29:00,
2013-02-20 10:34:00,56.1,33.9,30.15,NE,45,2.2,5.8,43,0.00,BKN,,0.00,WeatherDisplay:10.37,2013-02-20 15:34:00,
2013-02-20 10:39:00,56.7,35.0,30.15,NW,315,1.8,5.8,44,0.00,BKN,,0.00,WeatherDisplay:10.37,2013-02-20 15:39:00,
2013-02-20 10:44:00,56.8,35.1,30.15,NE,45,2.2,4.6,44,0.00,BKN,,0.00,WeatherDisplay:10.37,2013-02-20 15:44:00,
2013-02-20 10:49:00,57.0,35.3,30.15,NE,45,1.6,5.8,44,0.00,BKN,,0.00,WeatherDisplay:10.37,2013-02-20 15:49:00,
2013-02-20 10:54:00,58.3,35.3,30.15,North,0,1.3,4.6,42,0.00,BKN,,0.00,WeatherDisplay:10.37,2013-02-20 15:54:00,
2013-02-20 10:59:00,58.6,35.0,30.14,NE,45,0.7,3.5,41,0.00,BKN,,0.00,WeatherDisplay:10.37,2013-02-20 15:59:00,
2013-02-20 11:04:00,58.3,33.4,30.15,North,0,0.1,0.0,39,0.00,BKN,,0.00,WeatherDisplay:10.37,2013-02-20 16:04:00,
2013-02-20 11:09:00,60.1,35.7,30.14,NE,45,1.7,4.6,40,0.00,BKN,,0.00,WeatherDisplay:10.37,2013-02-20 16:09:00,
2013-02-20 11:14:00,60.1,33.7,30.14,East,90,1.3,5.8,37,0.00,BKN,,0.00,WeatherDisplay:10.37,2013-02-20 16:14:00,
2013-02-20 11:19:00,59.7,34.0,30.14,NE,45,0.9,2.3,38,0.00,BKN,,0.00,WeatherDisplay:10.37,2013-02-20 16:19:00,
2013-02-20 11:24:00,60.6,34.2,30.14,NE,45,2.0,8.1,37,0.00,BKN,,0.00,WeatherDisplay:10.37,2013-02-20 16:24:00,
2013-02-20 11:29:00,60.8,32.2,30.13,North,0,1.9,4.6,34,0.00,BKN,,0.00,WeatherDisplay:10.37,2013-02-20 16:29:00,
2013-02-20 11:34:00,59.4,32.4,30.13,NE,45,1.5,4.6,36,0.00,BKN,,0.00,WeatherDisplay:10.37,2013-02-20 16:34:00,
2013-02-20 11:39:00,60.4,32.6,30.13,North,0,0.9,2.3,35,0.00,BKN,,0.00,WeatherDisplay:10.37,2013-02-20 16:39:00,
2013-02-20 11:44:00,60.4,32.6,30.13,North,0,1.9,5.8,35,0.00,BKN,,0.00,WeatherDisplay:10.37,2013-02-20 16:44:00,
2013-02-20 11:49:00,62.2,34.2,30.13,NE,45,2.2,5.8,35,0.00,BKN,,0.00,WeatherDisplay:10.37,2013-02-20 16:49:00,
2013-02-20 11:54:00,61.5,31.4,30.13,East,90,1.5,5.8,32,0.00,BKN,,0.00,WeatherDisplay:10.37,2013-02-20 16:54:00,
2013-02-20 11:59:00,62.2,30.4,30.13,North,0,0.9,4.6,30,0.00,BKN,,0.00,WeatherDisplay:10.37,2013-02-20 16:59:00,
2013-02-20 12:04:00,62.4,32.1,30.13,North,0,1.7,2.7,32,0.00,BKN,,0.00,WeatherDisplay:10.37,2013-02-20 17:04:00,
2013-02-20 12:09:00,61.3,27.9,30.12,North,0,1.8,4.6,28,0.00,BKN,,0.00,WeatherDisplay:10.37,2013-02-20 17:09:00,
2013-02-20 12:14:00,62.2,30.4,30.11,NE,45,1.7,2.3,30,0.00,BKN,,0.00,WeatherDisplay:10.37,2013-02-20 17:14:00,
2013-02-20 12:19:00,61.0,29.3,30.11,North,0,1.5,2.3,30,0.00,BKN,,0.00,WeatherDisplay:10.37,2013-02-20 17:19:00,
2013-02-20 12:24:00,62.8,30.9,30.10,NE,45,1.6,3.5,30,0.00,BKN,,0.00,WeatherDisplay:10.37,2013-02-20 17:24:00,
2013-02-20 12:29:00,63.3,32.1,30.10,NE,45,0.0,1.3,31,0.00,BKN,,0.00,WeatherDisplay:10.37,2013-02-20 17:29:00,
2013-02-20 12:34:00,64.4,30.6,30.10,NE,45,1.8,4.6,28,0.00,BKN,,0.00,WeatherDisplay:10.37,2013-02-20 17:34:00,
2013-02-20 12:39:00,63.3,30.5,30.10,NE,45,0.5,4.6,29,0.00,BKN,,0.00,WeatherDisplay:10.37,2013-02-20 17:39:00,
2013-02-20 12:44:00,64.9,31.9,30.09,East,90,0.1,4.6,29,0.00,BKN,,0.00,WeatherDisplay:10.37,2013-02-20 17:44:00,
2013-02-20 12:49:00,64.0,30.2,30.09,NE,45,0.3,1.1,28,0.00,BKN,,0.00,WeatherDisplay:10.37,2013-02-20 17:49:00,
2013-02-20 12:54:00,65.1,32.0,30.08,NE,45,1.1,3.5,29,0.00,BKN,,0.00,WeatherDisplay:10.37,2013-02-20 17:54:00,
2013-02-20 12:59:00,64.4,31.4,30.08,NE,45,0.2,4.6,29,0.00,BKN,,0.00,WeatherDisplay:10.37,2013-02-20 17:59:00,
2013-02-20 13:04:00,64.2,33.7,30.08,NE,45,0.6,3.5,32,0.00,BKN,,0.00,WeatherDisplay:10.37,2013-02-20 18:04:00,
2013-02-20 13:09:00,64.6,33.2,30.08,NE,45,1.1,2.3,31,0.00,BKN,,0.00,WeatherDisplay:10.37,2013-02-20 18:09:00,
2013-02-20 13:14:00,63.1,34.3,30.07,North,0,0.8,1.4,34,0.00,BKN,,0.00,WeatherDisplay:10.37,2013-02-20 18:14:00,
2013-02-20 13:19:00,62.8,33.2,30.07,North,0,0.0,0.0,33,0.00,BKN,,0.00,WeatherDisplay:10.37,2013-02-20 18:19:00,
2013-02-20 13:24:00,62.8,34.0,30.07,North,0,2.0,4.6,34,0.00,BKN,,0.00,WeatherDisplay:10.37,2013-02-20 18:24:00,
2013-02-20 13:29:00,63.1,34.3,30.07,SE,135,0.2,0.0,34,0.00,BKN,,0.00,WeatherDisplay:10.37,2013-02-20 18:29:00,
2013-02-20 13:34:00,63.0,34.1,30.06,North,0,0.0,1.4,34,0.00,BKN,,0.00,WeatherDisplay:10.37,2013-02-20 18:34:00,
2013-02-20 13:39:00,62.8,34.7,30.06,North,0,0.1,0.0,35,0.00,BKN,,0.00,WeatherDisplay:10.37,2013-02-20 18:39:00,
2013-02-20 13:44:00,63.1,35.7,30.06,North,0,0.9,2.3,36,0.00,BKN,,0.00,WeatherDisplay:10.37,2013-02-20 18:44:00,
2013-02-20 13:49:00,63.5,36.7,30.05,NE,45,0.0,0.0,37,0.00,BKN,,0.00,WeatherDisplay:10.37,2013-02-20 18:49:00,
2013-02-20 13:54:00,63.9,34.9,30.05,North,0,0.8,2.3,34,0.00,BKN,,0.00,WeatherDisplay:10.37,2013-02-20 18:54:00,
2013-02-20 13:59:00,63.7,35.5,30.05,East,90,2.3,5.8,35,0.00,BKN,,0.00,WeatherDisplay:10.37,2013-02-20 18:59:00,
2013-02-20 14:04:00,63.9,35.7,30.05,NE,45,1.7,5.8,35,0.00,BKN,,0.00,WeatherDisplay:10.37,2013-02-20 19:04:00,
2013-02-20 14:09:00,64.2,36.7,30.05,NE,45,2.6,5.8,36,0.00,BKN,,0.00,WeatherDisplay:10.37,2013-02-20 19:09:00,
2013-02-20 14:14:00,64.2,36.0,30.04,NE,45,2.3,5.4,35,0.00,BKN,,0.00,WeatherDisplay:10.37,2013-02-20 19:14:00,
2013-02-20 14:19:00,64.0,35.8,30.04,NE,45,2.4,5.8,35,0.00,BKN,,0.00,WeatherDisplay:10.37,2013-02-20 19:19:00,
2013-02-20 14:24:00,64.0,35.8,30.04,NE,45,2.2,5.8,35,0.00,BKN,,0.00,WeatherDisplay:10.37,2013-02-20 19:24:00,
2013-02-20 14:29:00,64.0,35.8,30.04,NE,45,1.1,5.8,35,0.00,BKN,,0.00,WeatherDisplay:10.37,2013-02-20 19:29:00,
2013-02-20 14:34:00,64.2,36.0,30.03,NE,45,0.1,3.5,35,0.00,BKN,,0.00,WeatherDisplay:10.37,2013-02-20 19:34:00,
2013-02-20 14:39:00,64.0,35.8,30.04,NE,45,1.4,4.6,35,0.00,BKN,,0.00,WeatherDisplay:10.37,2013-02-20 19:39:00,
2013-02-20 14:44:00,64.0,37.2,30.04,East,90,1.8,4.6,37,0.00,BKN,,0.00,WeatherDisplay:10.37,2013-02-20 19:44:00,
2013-02-20 14:49:00,64.0,35.8,30.05,NE,45,0.6,1.3,35,0.00,BKN,,0.00,WeatherDisplay:10.37,2013-02-20 19:49:00,
2013-02-20 14:54:00,63.7,36.2,30.04,NE,45,0.0,1.1,36,0.00,BKN,,0.00,WeatherDisplay:10.37,2013-02-20 19:54:00,
2013-02-20 14:59:00,63.5,37.4,30.04,NE,45,1.0,2.7,38,0.00,BKN,,0.00,WeatherDisplay:10.37,2013-02-20 19:59:00,
2013-02-20 15:04:00,64.4,37.5,30.04,NE,45,0.2,1.3,37,0.00,BKN,,0.00,WeatherDisplay:10.37,2013-02-20 20:04:00,
2013-02-20 15:09:00,64.6,38.4,30.04,NE,45,1.2,2.7,38,0.00,BKN,,0.00,WeatherDisplay:10.37,2013-02-20 20:09:00,
2013-02-20 15:14:00,64.8,37.2,30.05,NE,45,0.4,2.3,36,0.00,BKN,,0.00,WeatherDisplay:10.37,2013-02-20 20:14:00,
2013-02-20 15:19:00,64.4,38.2,30.04,NE,45,0.0,0.0,38,0.00,BKN,,0.00,WeatherDisplay:10.37,2013-02-20 20:19:00,
2013-02-20 15:23:00,64.2,38.7,30.05,NE,45,0.0,2.3,39,0.00,BKN,,0.00,WeatherDisplay:10.37,2013-02-20 20:23:00,
2013-02-20 15:28:00,64.6,38.4,30.05,NE,45,0.0,2.3,38,0.00,BKN,,0.00,WeatherDisplay:10.37,2013-02-20 20:28:00,
2013-02-20 15:33:00,64.0,37.9,30.05,NE,45,0.0,0.0,38,0.00,BKN,,0.00,WeatherDisplay:10.37,2013-02-20 20:33:00,
2013-02-20 15:38:00,64.0,37.9,30.05,NE,45,1.3,2.7,38,0.00,BKN,,0.00,WeatherDisplay:10.37,2013-02-20 20:38:00,
2013-02-20 15:43:00,64.4,38.9,30.04,NE,45,0.9,2.3,39,0.00,BKN,,0.00,WeatherDisplay:10.37,2013-02-20 20:43:00,
2013-02-20 15:48:00,64.6,38.4,30.04,NE,45,1.0,2.3,38,0.00,BKN,,0.00,WeatherDisplay:10.37,2013-02-20 20:48:00,
2013-02-20 16:07:00,65.1,39.5,30.04,NE,45,0.0,0.0,39,0.00,BKN,,0.00,WeatherDisplay:10.37,2013-02-20 21:07:00,
2013-02-20 16:12:00,64.6,39.0,30.04,NE,45,0.0,0.0,39,0.00,BKN,,0.00,WeatherDisplay:10.37,2013-02-20 21:12:00,
2013-02-20 16:17:00,64.6,39.0,30.04,NE,45,0.0,0.0,39,0.00,BKN,,0.00,WeatherDisplay:10.37,2013-02-20 21:17:00,
2013-02-20 16:22:00,64.8,39.9,30.04,NE,45,0.0,0.0,40,0.00,BKN,,0.00,WeatherDisplay:10.37,2013-02-20 21:22:00,
2013-02-20 16:27:00,64.8,39.9,30.04,NE,45,0.0,1.4,40,0.00,BKN,,0.00,WeatherDisplay:10.37,2013-02-20 21:27:00,
2013-02-20 16:45:00,64.4,40.8,30.03,NE,45,0.0,0.0,42,0.00,BKN,,0.00,WeatherDisplay:10.37,2013-02-20 21:45:00,
2013-02-20 16:50:00,64.6,41.0,30.03,NE,45,0.0,0.0,42,0.00,BKN,,0.00,WeatherDisplay:10.37,2013-02-20 21:50:00,
2013-02-20 16:55:00,64.4,40.8,30.04,NE,45,0.0,0.0,42,0.00,BKN,,0.00,WeatherDisplay:10.37,2013-02-20 21:55:00,
2013-02-20 17:00:00,64.2,41.2,30.03,NE,45,0.0,0.0,43,0.00,BKN,,0.00,WeatherDisplay:10.37,2013-02-20 22:00:00,
2013-02-20 17:05:00,64.2,41.8,30.04,NE,45,0.0,0.0,44,0.00,BKN,,0.00,WeatherDisplay:10.37,2013-02-20 22:05:00,
2013-02-20 17:10:00,64.0,41.1,30.04,NE,45,0.0,0.0,43,0.00,BKN,,0.00,WeatherDisplay:10.37,2013-02-20 22:10:00,
2013-02-20 17:15:00,63.9,42.1,30.04,NE,45,0.0,0.0,45,0.00,BKN,,0.00,WeatherDisplay:10.37,2013-02-20 22:15:00,
2013-02-20 17:20:00,63.5,43.4,30.04,NE,45,0.0,0.0,48,0.00,BKN,,0.00,WeatherDisplay:10.37,2013-02-20 22:20:00,
2013-02-20 17:25:00,63.1,43.1,30.05,NE,45,0.0,0.0,48,0.00,BKN,,0.00,WeatherDisplay:10.37,2013-02-20 22:25:00,
2013-02-20 17:30:00,63.0,43.5,30.05,NE,45,0.0,0.0,49,0.00,BKN,,0.00,WeatherDisplay:10.37,2013-02-20 22:30:00,
2013-02-20 17:35:00,62.4,43.5,30.04,NE,45,0.0,0.0,50,0.00,BKN,,0.00,WeatherDisplay:10.37,2013-02-20 22:35:00,
2013-02-20 17:40:00,62.2,43.9,30.05,NE,45,0.0,0.0,51,0.00,BKN,,0.00,WeatherDisplay:10.37,2013-02-20 22:40:00,
2013-02-20 17:45:00,61.9,43.5,30.05,NE,45,0.0,0.0,51,0.00,BKN,,0.00,WeatherDisplay:10.37,2013-02-20 22:45:00,
2013-02-20 17:50:00,61.7,43.9,30.05,NE,45,0.0,0.0,52,0.00,BKN,,0.00,WeatherDisplay:10.37,2013-02-20 22:50:00,
2013-02-20 17:55:00,61.2,43.4,30.05,NE,45,0.0,0.0,52,0.00,BKN,,0.00,WeatherDisplay:10.37,2013-02-20 22:55:00,
2013-02-20 18:00:00,60.6,42.9,30.05,NE,45,0.0,0.0,52,0.00,BKN,,0.00,WeatherDisplay:10.37,2013-02-20 23:00:00,
2013-02-20 18:05:00,60.3,44.0,30.05,NE,45,0.0,0.0,55,0.00,OVC,,0.00,WeatherDisplay:10.37,2013-02-20 23:05:00,
2013-02-20 18:10:00,59.9,44.6,30.05,NE,45,0.0,0.0,57,0.00,OVC,,0.00,WeatherDisplay:10.37,2013-02-20 23:10:00,
2013-02-20 18:15:00,59.5,44.3,30.05,NE,45,0.0,0.0,57,0.00,OVC,,0.00,WeatherDisplay:10.37,2013-02-20 23:15:00,
2013-02-20 18:20:00,59.2,44.4,30.05,NE,45,0.0,0.0,58,0.00,OVC,,0.00,WeatherDisplay:10.37,2013-02-20 23:20:00,
2013-02-20 18:25:00,58.6,44.3,30.05,NE,45,0.0,0.0,59,0.00,OVC,,0.00,WeatherDisplay:10.37,2013-02-20 23:25:00,
2013-02-20 18:30:00,58.3,44.9,30.05,NE,45,0.0,0.0,61,0.00,OVC,,0.00,WeatherDisplay:10.37,2013-02-20 23:30:00,
2013-02-20 18:35:00,58.1,45.1,30.06,NE,45,0.0,0.0,62,0.00,OVC,,0.00,WeatherDisplay:10.37,2013-02-20 23:35:00,
2013-02-20 18:40:00,57.7,45.2,30.07,NE,45,0.0,0.0,63,0.00,OVC,,0.00,WeatherDisplay:10.37,2013-02-20 23:40:00,
2013-02-20 18:45:00,57.4,45.3,30.07,NE,45,0.0,0.0,64,0.00,OVC,,0.00,WeatherDisplay:10.37,2013-02-20 23:45:00,
2013-02-20 18:50:00,57.0,44.5,30.06,NE,45,0.0,0.0,63,0.00,OVC,,0.00,WeatherDisplay:10.37,2013-02-20 23:50:00,
2013-02-20 18:55:00,56.7,44.6,30.07,NE,45,0.0,0.0,64,0.00,OVC,,0.00,WeatherDisplay:10.37,2013-02-20 23:55:00,
2013-02-20 19:00:00,56.5,44.9,30.07,NE,45,0.0,0.0,65,0.00,OVC,,0.00,WeatherDisplay:10.37,2013-02-21 00:00:00,
2013-02-20 19:05:00,56.3,45.1,30.07,NE,45,0.0,0.0,66,0.00,BKN,,0.00,WeatherDisplay:10.37,2013-02-21 00:05:00,
2013-02-20 19:10:00,56.1,44.9,30.07,NE,45,0.0,0.0,66,0.00,BKN,,0.00,WeatherDisplay:10.37,2013-02-21 00:10:00,
2013-02-20 19:15:00,56.5,46.0,30.08,NE,45,0.2,2.3,68,0.00,BKN,,0.00,WeatherDisplay:10.37,2013-02-21 00:15:00,
2013-02-20 19:20:00,56.7,46.2,30.08,NE,45,0.1,0.0,68,0.00,BKN,,0.00,WeatherDisplay:10.37,2013-02-21 00:20:00,
2013-02-20 19:25:00,56.7,46.2,30.09,NE,45,0.0,0.0,68,0.00,BKN,,0.00,WeatherDisplay:10.37,2013-02-21 00:25:00,
2013-02-20 19:30:00,56.7,45.8,30.09,NE,45,0.0,0.0,67,0.00,BKN,,0.00,WeatherDisplay:10.37,2013-02-21 00:30:00,
2013-02-20 19:35:00,56.3,45.9,30.09,NE,45,0.2,2.3,68,0.00,BKN,,0.00,WeatherDisplay:10.37,2013-02-21 00:35:00,
2013-02-20 19:40:00,56.1,45.7,30.09,NE,45,0.0,0.0,68,0.00,BKN,,0.00,WeatherDisplay:10.37,2013-02-21 00:40:00,
2013-02-20 19:45:00,55.9,45.9,30.10,NE,45,0.1,1.4,69,0.00,BKN,,0.00,WeatherDisplay:10.37,2013-02-21 00:45:00,
2013-02-20 19:50:00,55.8,45.7,30.10,NE,45,0.0,0.0,69,0.00,BKN,,0.00,WeatherDisplay:10.37,2013-02-21 00:50:00,
2013-02-20 19:55:00,55.6,45.6,30.09,NE,45,0.0,0.0,69,0.00,BKN,,0.00,WeatherDisplay:10.37,2013-02-21 00:55:00,
2013-02-20 20:00:00,55.6,45.6,30.09,NE,45,0.2,2.3,69,0.00,BKN,,0.00,WeatherDisplay:10.37,2013-02-21 01:00:00,
2013-02-20 20:05:00,55.2,45.2,30.09,NE,45,0.0,0.0,69,0.00,BKN,,0.00,WeatherDisplay:10.37,2013-02-21 01:05:00,
2013-02-20 20:10:00,55.0,45.1,30.09,NE,45,0.0,0.0,69,0.00,BKN,,0.00,WeatherDisplay:10.37,2013-02-21 01:10:00,
2013-02-20 20:15:00,55.0,45.4,30.09,NE,45,0.0,0.0,70,0.00,BKN,,0.00,WeatherDisplay:10.37,2013-02-21 01:15:00,
2013-02-20 20:20:00,54.7,45.5,30.09,NE,45,0.3,2.3,71,0.00,BKN,,0.00,WeatherDisplay:10.37,2013-02-21 01:20:00,
2013-02-20 20:25:00,54.7,45.5,30.09,NE,45,0.0,0.0,71,0.00,BKN,,0.00,WeatherDisplay:10.37,2013-02-21 01:25:00,
2013-02-20 20:30:00,54.7,45.5,30.08,NE,45,0.0,0.0,71,0.00,BKN,,0.00,WeatherDisplay:10.37,2013-02-21 01:30:00,
2013-02-20 20:35:00,54.5,45.3,30.07,NE,45,0.0,0.0,71,0.00,BKN,,0.00,WeatherDisplay:10.37,2013-02-21 01:35:00,
2013-02-20 20:40:00,54.5,45.3,30.07,NE,45,0.0,0.0,71,0.00,BKN,,0.00,WeatherDisplay:10.37,2013-02-21 01:40:00,
2013-02-20 20:45:00,54.5,45.3,30.08,NE,45,0.0,0.0,71,0.00,BKN,,0.00,WeatherDisplay:10.37,2013-02-21 01:45:00,
2013-02-20 20:50:00,54.3,45.5,30.07,NE,45,0.0,0.0,72,0.00,BKN,,0.00,WeatherDisplay:10.37,2013-02-21 01:50:00,
2013-02-20 20:55:00,54.1,45.7,30.07,NE,45,0.0,0.0,73,0.00,BKN,,0.00,WeatherDisplay:10.37,2013-02-21 01:55:00,
2013-02-20 21:00:00,54.0,45.5,30.07,NE,45,0.0,0.0,73,0.00,BKN,,0.00,WeatherDisplay:10.37,2013-02-21 02:00:00,
2013-02-20 21:05:00,53.6,44.8,30.07,NE,45,0.0,0.0,72,0.00,BKN,,0.00,WeatherDisplay:10.37,2013-02-21 02:05:00,
2013-02-20 21:10:00,53.4,45.0,30.08,NE,45,0.0,0.0,73,0.00,BKN,,0.00,WeatherDisplay:10.37,2013-02-21 02:10:00,
2013-02-20 21:15:00,53.2,44.8,30.07,NE,45,0.0,0.0,73,0.00,BKN,,0.00,WeatherDisplay:10.37,2013-02-21 02:15:00,
2013-02-20 21:20:00,53.1,45.3,30.08,NE,45,0.0,0.0,75,0.00,BKN,,0.00,WeatherDisplay:10.37,2013-02-21 02:20:00,
2013-02-20 21:25:00,52.9,45.2,30.08,NE,45,0.0,0.0,75,0.00,BKN,,0.00,WeatherDisplay:10.37,2013-02-21 02:25:00,
2013-02-20 21:30:00,52.5,45.2,30.09,NE,45,0.0,0.0,76,0.00,BKN,,0.00,WeatherDisplay:10.37,2013-02-21 02:30:00,
2013-02-20 21:35:00,52.3,45.3,30.09,NE,45,0.0,0.0,77,0.00,BKN,,0.00,WeatherDisplay:10.37,2013-02-21 02:35:00,
2013-02-20 21:40:00,52.2,44.8,30.09,NE,45,0.0,0.0,76,0.00,BKN,,0.00,WeatherDisplay:10.37,2013-02-21 02:40:00,
2013-02-20 21:45:00,52.2,45.2,30.09,NE,45,0.0,0.0,77,0.00,BKN,,0.00,WeatherDisplay:10.37,2013-02-21 02:45:00,
2013-02-20 21:50:00,52.0,45.7,30.09,NE,45,0.0,0.0,79,0.00,BKN,,0.00,WeatherDisplay:10.37,2013-02-21 02:50:00,
2013-02-20 21:55:00,51.8,45.5,30.09,NE,45,0.0,0.0,79,0.00,BKN,,0.00,WeatherDisplay:10.37,2013-02-21 02:55:00,
2013-02-20 22:00:00,51.6,45.3,30.09,NE,45,0.0,0.0,79,0.00,BKN,,0.00,WeatherDisplay:10.37,2013-02-21 03:00:00,
2013-02-20 22:05:00,51.4,45.1,30.09,NE,45,0.0,0.0,79,0.00,BKN,,0.00,WeatherDisplay:10.37,2013-02-21 03:05:00,
2013-02-20 22:09:00,51.1,45.1,30.09,NE,45,0.0,0.0,80,0.00,BKN,,0.00,WeatherDisplay:10.37,2013-02-21 03:09:00,
2013-02-20 22:14:00,51.1,44.8,30.09,NE,45,0.0,0.0,79,0.00,BKN,,0.00,WeatherDisplay:10.37,2013-02-21 03:14:00,
2013-02-20 22:19:00,50.5,44.6,30.09,NE,45,0.0,0.0,80,0.00,BKN,,0.00,WeatherDisplay:10.37,2013-02-21 03:19:00,
2013-02-20 22:24:00,50.5,45.2,30.09,NE,45,0.0,0.0,82,0.00,BKN,,0.00,WeatherDisplay:10.37,2013-02-21 03:24:00,
2013-02-20 22:29:00,50.5,45.2,30.09,NE,45,0.0,0.0,82,0.00,BKN,,0.00,WeatherDisplay:10.37,2013-02-21 03:29:00,
2013-02-20 22:34:00,50.4,45.1,30.09,NE,45,0.0,0.0,82,0.00,BKN,,0.00,WeatherDisplay:10.37,2013-02-21 03:34:00,
2013-02-20 22:39:00,50.2,45.2,30.09,NE,45,0.0,0.0,83,0.00,BKN,,0.00,WeatherDisplay:10.37,2013-02-21 03:39:00,
2013-02-20 22:44:00,50.0,45.0,30.09,NE,45,0.0,0.0,83,0.00,BKN,,0.00,WeatherDisplay:10.37,2013-02-21 03:44:00,
2013-02-20 22:49:00,49.6,44.7,30.08,NE,45,0.0,0.0,83,0.00,BKN,,0.00,WeatherDisplay:10.37,2013-02-21 03:49:00,
2013-02-20 22:54:00,49.3,44.3,30.08,NE,45,0.0,0.0,83,0.00,BKN,,0.00,WeatherDisplay:10.37,2013-02-21 03:54:00,
2013-02-20 22:59:00,49.3,44.6,30.08,NE,45,0.0,0.0,84,0.00,BKN,,0.00,WeatherDisplay:10.37,2013-02-21 03:59:00,
2013-02-20 23:04:00,49.1,44.5,30.07,NE,45,0.0,0.0,84,0.00,BKN,,0.00,WeatherDisplay:10.37,2013-02-21 04:04:00,
2013-02-20 23:09:00,48.9,44.9,30.08,NE,45,0.0,0.0,86,0.00,BKN,,0.00,WeatherDisplay:10.37,2013-02-21 04:09:00,
2013-02-20 23:14:00,48.9,44.9,30.08,NE,45,0.0,0.0,86,0.00,BKN,,0.00,WeatherDisplay:10.37,2013-02-21 04:14:00,
2013-02-20 23:19:00,48.7,44.7,30.07,NE,45,0.0,0.0,86,0.00,BKN,,0.00,WeatherDisplay:10.37,2013-02-21 04:19:00,
2013-02-20 23:24:00,48.4,44.1,30.07,NE,45,0.0,0.0,85,0.00,BKN,,0.00,WeatherDisplay:10.37,2013-02-21 04:24:00,
2013-02-20 23:29:00,48.4,44.1,30.07,NE,45,0.0,0.0,85,0.00,BKN,,0.00,WeatherDisplay:10.37,2013-02-21 04:29:00,
2013-02-20 23:34:00,48.4,44.7,30.07,NE,45,0.0,0.0,87,0.00,BKN,,0.00,WeatherDisplay:10.37,2013-02-21 04:34:00,
2013-02-20 23:39:00,48.4,44.7,30.08,NE,45,0.0,0.0,87,0.00,BKN,,0.00,WeatherDisplay:10.37,2013-02-21 04:39:00,
2013-02-20 23:44:00,48.4,44.7,30.07,NE,45,0.0,0.0,87,0.00,BKN,,0.00,WeatherDisplay:10.37,2013-02-21 04:44:00,
2013-02-20 23:49:00,48.0,44.3,30.07,NE,45,0.0,0.0,87,0.00,BKN,,0.00,WeatherDisplay:10.37,2013-02-21 04:49:00,
2013-02-20 23:54:00,48.0,44.6,30.07,NE,45,0.0,0.0,88,0.00,BKN,,0.00,WeatherDisplay:10.37,2013-02-21 04:54:00,
2013-02-20 23:59:00,47.8,44.5,30.07,NE,45,0.0,0.0,88,0.00,BKN,,0.00,WeatherDisplay:10.37,2013-02-21 04:59:00,